createdAt,value
2023-03-06T00:42:38.672Z,551.00
2023-03-06T00:44:37.741Z,557.00
2023-03-06T00:45:37.806Z,552.00
2023-03-06T00:46:37.799Z,554.00
2023-03-06T00:47:37.844Z,555.00
2023-03-06T00:48:37.901Z,553.00
2023-03-06T00:49:38.652Z,555.00
2023-03-06T00:50:37.985Z,554.00
2023-03-06T00:51:38.014Z,550.00
2023-03-06T00:52:38.052Z,546.00
2023-03-06T00:53:38.093Z,556.00
2023-03-06T00:54:38.135Z,556.00
2023-03-06T00:55:38.180Z,547.00
2023-03-06T00:56:38.236Z,553.00
2023-03-06T00:57:38.253Z,546.00
2023-03-06T00:58:38.375Z,551.00
2023-03-06T00:59:38.348Z,551.00
2023-03-06T01:00:38.431Z,550.00
2023-03-06T01:01:38.518Z,546.00
2023-03-06T01:02:38.463Z,555.00
2023-03-06T01:03:38.512Z,555.00
2023-03-06T01:04:38.626Z,553.00
2023-03-06T01:05:38.607Z,554.00
2023-03-06T01:06:38.649Z,553.00
2023-03-06T01:07:38.701Z,551.00
2023-03-06T01:08:38.737Z,553.00
2023-03-06T01:09:38.773Z,552.00
2023-03-06T01:10:38.809Z,552.00
2023-03-06T01:11:38.854Z,548.00
2023-03-06T01:12:38.984Z,558.00
2023-03-06T01:13:39.031Z,552.00
2023-03-06T01:14:38.992Z,553.00
2023-03-06T01:15:39.037Z,556.00
2023-03-06T01:16:39.093Z,547.00
2023-03-06T01:17:39.120Z,552.00
2023-03-06T01:18:39.164Z,551.00
2023-03-06T01:19:39.205Z,552.00
2023-03-06T01:20:39.374Z,552.00
2023-03-06T01:21:39.297Z,556.00
2023-03-06T01:22:39.358Z,550.00
2023-03-06T01:23:39.378Z,556.00
2023-03-06T01:24:39.428Z,552.00
2023-03-06T01:25:39.476Z,553.00
2023-03-06T01:26:39.519Z,552.00
2023-03-06T01:27:39.570Z,555.00
2023-03-06T01:28:39.619Z,550.00
2023-03-06T01:29:39.705Z,549.00
2023-03-06T01:30:39.703Z,555.00
2023-03-06T01:31:39.813Z,558.00
2023-03-06T01:32:39.958Z,551.00
2023-03-06T01:33:39.835Z,553.00
2023-03-06T01:34:39.871Z,547.00
2023-03-06T01:35:39.945Z,553.00
2023-03-06T01:36:39.942Z,557.00
2023-03-06T01:37:39.997Z,552.00
2023-03-06T01:38:40.039Z,553.00
2023-03-06T01:39:40.082Z,557.00
2023-03-06T01:40:40.115Z,557.00
2023-03-06T01:41:40.149Z,556.00
2023-03-06T01:42:40.197Z,553.00
2023-03-06T01:43:40.248Z,553.00
2023-03-06T01:44:40.275Z,550.00
2023-03-06T01:45:40.319Z,553.00
2023-03-06T01:46:40.368Z,548.00
2023-03-06T01:47:40.408Z,555.00
2023-03-06T01:48:40.444Z,557.00
2023-03-06T01:49:40.589Z,557.00
2023-03-06T01:50:40.526Z,557.00
2023-03-06T01:51:40.571Z,550.00
2023-03-06T01:52:40.608Z,555.00
2023-03-06T01:53:40.643Z,556.00
2023-03-06T01:54:40.693Z,556.00
2023-03-06T01:55:40.734Z,558.00
2023-03-06T06:39:47.784Z,759.00
2023-03-06T07:12:47.748Z,1933.00
2023-03-06T07:13:48.761Z,1957.00
2023-03-06T07:17:49.915Z,2238.00
2023-03-06T08:07:47.822Z,2066.00
2023-03-06T08:21:47.829Z,1101.00
2023-03-06T08:42:47.837Z,498.00
2023-03-06T08:43:47.846Z,502.00
2023-03-06T08:51:47.717Z,506.00
2023-03-06T08:52:47.761Z,506.00
2023-03-06T08:53:47.807Z,501.00
2023-03-06T08:54:47.803Z,500.00
2023-03-06T08:55:47.812Z,498.00
2023-03-06T08:56:47.810Z,509.00
2023-03-06T08:57:47.821Z,513.00
2023-03-06T08:58:47.836Z,516.00
2023-03-06T08:59:47.856Z,516.00
2023-03-06T09:00:47.942Z,500.00
2023-03-06T09:01:47.894Z,517.00
2023-03-06T09:02:47.922Z,498.00
2023-03-06T09:03:47.935Z,509.00
2023-03-06T09:04:47.947Z,500.00
2023-03-06T09:05:47.969Z,506.00
2023-03-06T09:07:48.011Z,508.00
2023-03-06T09:08:48.044Z,500.00
2023-03-06T09:09:48.057Z,505.00
2023-03-06T09:10:48.119Z,501.00
2023-03-06T09:11:48.090Z,524.00
2023-03-06T09:12:51.221Z,507.00
2023-03-06T09:13:48.081Z,569.00
2023-03-06T09:14:48.314Z,666.00
2023-03-06T09:15:48.071Z,904.00
2023-03-06T09:16:48.256Z,1067.00
2023-03-06T09:17:48.169Z,1256.00
2023-03-06T09:18:48.067Z,1443.00
2023-03-06T09:19:48.038Z,1578.00
2023-03-06T09:20:48.038Z,1689.00
2023-03-06T09:21:48.027Z,1787.00
2023-03-06T09:22:48.026Z,1849.00
2023-03-06T09:23:48.020Z,1883.00
2023-03-06T09:25:48.011Z,2007.00
2023-03-06T09:26:49.872Z,2069.00
2023-03-06T09:28:47.977Z,1284.00
2023-03-06T09:33:47.963Z,1415.00
2023-03-06T09:34:47.948Z,1552.00
2023-03-06T09:35:47.996Z,1641.00
2023-03-06T09:36:56.900Z,1737.00
2023-03-06T09:38:47.980Z,1775.00
2023-03-06T09:39:47.924Z,1861.00
2023-03-06T09:40:47.913Z,2001.00
2023-03-06T13:04:54.949Z,3316.00
2023-03-06T14:14:53.305Z,2977.00
2023-03-06T14:15:53.452Z,2973.00
2023-03-06T14:16:53.482Z,2981.00
2023-03-06T14:17:53.471Z,2968.00
2023-03-06T14:18:53.523Z,2969.00
2023-03-06T14:19:53.582Z,2961.00
2023-03-06T14:28:53.939Z,2916.00
2023-03-06T14:54:54.210Z,2818.00
2023-03-06T14:55:54.105Z,2808.00
2023-03-06T14:56:54.137Z,2797.00
2023-03-06T14:57:54.114Z,2804.00
2023-03-06T14:58:54.122Z,2798.00
2023-03-06T14:59:54.112Z,2804.00
2023-03-06T15:00:54.230Z,2785.00
2023-03-06T15:01:54.127Z,2781.00
2023-03-06T15:02:54.173Z,2778.00
2023-03-06T15:03:54.134Z,2775.00
2023-03-06T15:04:54.141Z,2766.00
2023-03-06T15:05:54.153Z,2755.00
2023-03-06T15:06:54.193Z,2757.00
2023-03-06T15:07:54.155Z,2739.00
2023-03-06T15:08:54.168Z,2738.00
2023-03-06T15:09:54.170Z,2733.00
2023-03-06T15:10:54.228Z,2724.00
2023-03-06T15:11:54.230Z,2723.00
2023-03-06T15:12:54.193Z,2729.00
2023-03-06T15:13:54.213Z,2728.00
2023-03-06T15:14:54.212Z,2719.00
2023-03-06T15:15:54.263Z,2725.00
2023-03-06T15:16:54.248Z,2715.00
2023-03-06T15:17:54.239Z,2707.00
2023-03-06T15:18:54.257Z,2715.00
2023-03-06T15:19:54.491Z,2714.00
2023-03-06T15:20:54.285Z,2710.00
2023-03-06T15:21:54.293Z,2706.00
2023-03-06T15:22:54.305Z,2701.00
2023-03-06T15:23:54.316Z,2698.00
2023-03-06T15:24:54.424Z,2690.00
2023-03-06T15:25:54.365Z,2690.00
2023-03-06T15:26:54.373Z,2684.00
2023-03-06T15:27:54.401Z,2686.00
2023-03-06T15:29:03.408Z,2671.00
2023-03-06T15:29:55.405Z,2672.00
2023-03-06T15:30:54.394Z,2675.00
2023-03-06T15:31:54.426Z,2678.00
2023-03-06T15:32:54.381Z,2674.00
2023-03-06T15:33:54.381Z,2673.00
2023-03-06T15:34:54.402Z,2664.00
2023-03-06T15:35:54.402Z,2649.00
2023-03-06T15:36:54.391Z,2663.00
2023-03-06T15:37:54.358Z,2643.00
2023-03-06T15:38:54.350Z,2625.00
2023-03-06T15:39:54.351Z,2642.00
2023-03-06T15:40:54.340Z,2633.00
2023-03-06T15:41:54.331Z,2614.00
2023-03-06T15:42:54.330Z,2616.00
2023-03-06T15:43:54.997Z,2616.00
2023-03-06T15:44:54.319Z,2604.00
2023-03-06T15:45:54.311Z,2591.00
2023-03-06T15:47:07.784Z,2584.00
2023-03-06T15:47:55.293Z,2584.00
2023-03-06T15:48:54.287Z,2585.00
2023-03-06T15:49:54.283Z,2584.00
2023-03-06T15:50:54.294Z,2576.00
2023-03-06T15:51:54.264Z,2567.00
2023-03-06T15:52:54.255Z,2567.00
2023-03-06T15:53:59.782Z,2568.00
2023-03-06T15:54:55.260Z,2569.00
2023-03-06T15:55:54.250Z,2569.00
2023-03-06T15:56:54.232Z,2572.00
2023-03-06T15:57:54.226Z,2572.00
2023-03-06T15:58:55.002Z,2577.00
2023-03-06T15:59:54.238Z,2561.00
2023-03-06T16:00:54.252Z,2557.00
2023-03-06T16:01:54.208Z,2571.00
2023-03-06T16:02:54.186Z,2555.00
2023-03-06T16:03:54.204Z,2556.00
2023-03-06T16:04:54.215Z,2551.00
2023-03-06T16:05:54.168Z,2555.00
2023-03-06T16:06:54.168Z,2551.00
2023-03-06T16:07:54.172Z,2538.00
2023-03-06T16:08:54.230Z,2527.00
2023-03-06T16:09:54.257Z,2523.00
2023-03-06T16:10:54.312Z,2530.00
2023-03-06T16:11:54.355Z,2527.00
2023-03-06T16:12:54.413Z,2519.00
2023-03-06T16:13:54.456Z,2525.00
2023-03-06T16:14:54.506Z,2521.00
2023-03-06T16:15:55.010Z,2519.00
2023-03-06T16:16:54.676Z,2519.00
2023-03-06T16:17:54.671Z,2520.00
2023-03-06T16:18:54.728Z,2518.00
2023-03-06T16:19:54.782Z,2499.00
2023-03-06T16:20:54.841Z,2494.00
2023-03-06T16:21:54.910Z,2492.00
2023-03-06T16:22:54.929Z,2499.00
2023-03-06T16:23:54.999Z,2492.00
2023-03-06T16:24:55.051Z,2485.00
2023-03-06T16:25:55.110Z,2488.00
2023-03-06T16:26:55.189Z,2488.00
2023-03-06T16:27:55.215Z,2493.00
2023-03-06T16:28:55.265Z,2494.00
2023-03-06T16:29:55.304Z,2492.00
2023-03-06T16:30:55.461Z,2476.00
2023-03-06T16:31:55.496Z,2483.00
2023-03-06T16:32:55.478Z,2473.00
2023-03-06T16:33:55.542Z,2453.00
2023-03-06T16:34:55.603Z,2438.00
2023-03-06T16:35:55.692Z,2448.00
2023-03-06T16:36:55.723Z,2455.00
2023-03-06T16:37:55.780Z,2443.00
2023-03-06T16:38:55.855Z,2439.00
2023-03-06T16:39:55.901Z,2435.00
2023-03-06T16:40:55.963Z,2422.00
2023-03-06T16:41:56.032Z,2422.00
2023-03-06T16:42:56.153Z,2427.00
2023-03-06T16:43:56.196Z,2436.00
2023-03-06T16:44:56.238Z,2428.00
2023-03-06T16:45:56.322Z,2431.00
2023-03-06T16:46:56.382Z,2436.00
2023-03-06T16:47:57.820Z,2435.00
2023-03-06T16:48:56.436Z,2441.00
2023-03-06T16:49:56.515Z,2440.00
2023-03-06T16:50:56.559Z,2447.00
2023-03-06T16:51:56.612Z,2433.00
2023-03-06T16:52:56.691Z,2420.00
2023-03-06T16:53:56.753Z,2426.00
2023-03-06T16:54:56.796Z,2419.00
2023-03-06T16:55:56.842Z,2416.00
2023-03-06T16:56:56.900Z,2416.00
2023-03-06T16:57:56.963Z,2415.00
2023-03-06T16:58:57.019Z,2402.00
2023-03-06T16:59:57.128Z,2403.00
2023-03-06T17:00:57.122Z,2403.00
2023-03-06T17:11:57.314Z,2361.00
2023-03-06T17:12:57.321Z,2343.00
2023-03-06T17:13:57.319Z,2353.00
2023-03-06T17:14:57.344Z,2361.00
2023-03-06T17:15:57.359Z,2360.00
2023-03-06T17:16:57.346Z,2356.00
2023-03-06T17:17:57.353Z,2344.00
2023-03-06T17:18:57.352Z,2345.00
2023-03-06T17:19:57.357Z,2342.00
2023-03-06T17:20:57.363Z,2341.00
2023-03-06T17:21:57.350Z,2340.00
2023-03-06T17:22:57.363Z,2333.00
2023-03-06T17:23:57.389Z,2330.00
2023-03-06T17:24:57.433Z,2328.00
2023-03-06T17:25:57.514Z,2315.00
2023-03-06T17:26:57.460Z,2305.00
2023-03-06T17:27:57.493Z,2306.00
2023-03-06T17:28:57.524Z,2304.00
2023-03-06T17:29:57.527Z,2289.00
2023-03-06T17:30:57.600Z,2274.00
2023-03-06T17:31:57.564Z,2270.00
2023-03-06T17:32:57.575Z,2270.00
2023-03-06T17:33:57.591Z,2266.00
2023-03-06T17:34:57.590Z,2259.00
2023-03-06T17:35:57.665Z,2256.00
2023-03-06T17:36:57.643Z,2235.00
2023-03-06T17:37:57.627Z,2240.00
2023-03-06T17:38:57.626Z,2239.00
2023-03-06T17:39:57.638Z,2236.00
2023-03-06T17:40:57.635Z,2220.00
2023-03-06T17:41:57.706Z,2210.00
2023-03-06T17:42:57.633Z,2231.00
2023-03-06T17:43:57.632Z,2245.00
2023-03-06T17:44:57.641Z,2241.00
2023-03-06T17:45:57.640Z,2234.00
2023-03-06T17:46:57.626Z,2246.00
2023-03-06T17:47:57.637Z,2243.00
2023-03-06T17:48:57.638Z,2228.00
2023-03-06T17:49:57.631Z,2235.00
2023-03-06T17:50:57.654Z,2227.00
2023-03-06T17:51:57.646Z,2228.00
2023-03-06T17:52:57.640Z,2234.00
2023-03-06T17:53:57.671Z,2235.00
2023-03-06T17:54:57.631Z,2239.00
2023-03-06T17:55:57.641Z,2242.00
2023-03-06T17:56:57.633Z,2230.00
2023-03-06T17:57:57.642Z,2219.00
2023-03-06T17:58:57.637Z,2203.00
2023-03-06T17:59:57.701Z,2209.00
2023-03-06T18:00:57.672Z,2204.00
2023-03-06T18:01:57.705Z,2208.00
2023-03-06T18:02:57.676Z,2198.00
2023-03-06T18:03:57.678Z,2199.00
2023-03-06T18:04:57.747Z,2203.00
2023-03-06T18:05:57.703Z,2198.00
2023-03-06T18:06:57.691Z,2193.00
2023-03-06T18:07:58.053Z,2193.00
2023-03-06T18:08:57.740Z,2179.00
2023-03-06T18:09:57.772Z,2173.00
2023-03-06T18:10:57.768Z,2178.00
2023-03-06T18:11:57.757Z,2171.00
2023-03-06T18:12:57.782Z,2168.00
2023-03-06T18:13:57.791Z,2167.00
2023-03-06T18:14:57.790Z,2168.00
2023-03-06T18:15:57.801Z,2168.00
2023-03-06T18:16:57.805Z,2160.00
2023-03-06T18:17:57.790Z,2154.00
2023-03-06T18:18:57.798Z,2167.00
2023-03-06T18:19:57.869Z,2159.00
2023-03-06T18:20:57.806Z,2142.00
2023-03-06T18:21:57.812Z,2153.00
2023-03-06T18:22:57.809Z,2153.00
2023-03-06T18:23:57.849Z,2153.00
2023-03-06T18:24:57.836Z,2138.00
2023-03-06T18:25:57.850Z,2126.00
2023-03-06T18:26:57.869Z,2139.00
2023-03-06T18:27:57.876Z,2126.00
2023-03-06T18:28:57.865Z,2115.00
2023-03-06T18:29:57.905Z,2113.00
2023-03-06T18:30:57.875Z,2125.00
2023-03-06T18:31:57.975Z,2112.00
2023-03-06T18:32:57.907Z,2106.00
2023-03-06T18:33:57.918Z,2115.00
2023-03-06T18:34:57.925Z,2116.00
2023-03-06T18:35:57.964Z,2101.00
2023-03-06T18:36:57.942Z,2107.00
2023-03-06T18:37:57.939Z,2104.00
2023-03-06T18:38:57.954Z,2104.00
2023-03-06T18:39:58.054Z,2110.00
2023-03-06T18:40:57.962Z,2100.00
2023-03-06T18:41:57.973Z,2082.00
2023-03-06T18:42:57.972Z,2080.00
2023-03-06T18:43:57.986Z,2083.00
2023-03-06T18:44:58.061Z,2094.00
2023-03-06T18:45:58.036Z,2088.00
2023-03-06T18:46:58.023Z,2089.00
2023-03-06T18:47:57.989Z,2083.00
2023-03-06T18:48:58.017Z,2092.00
2023-03-06T18:49:58.014Z,2076.00
2023-03-06T18:50:58.060Z,2077.00
2023-03-06T18:51:58.066Z,2065.00
2023-03-06T18:52:58.076Z,2066.00
2023-03-06T18:53:58.185Z,2069.00
2023-03-06T18:54:58.112Z,2065.00
2023-03-06T18:55:58.211Z,2068.00
2023-03-06T18:56:58.212Z,2056.00
2023-03-06T18:57:58.221Z,2049.00
2023-03-06T18:58:58.240Z,2044.00
2023-03-06T18:59:58.232Z,2060.00
2023-03-06T19:00:59.486Z,2037.00
2023-03-06T19:01:58.284Z,2048.00
2023-03-06T19:02:58.270Z,2042.00
2023-03-06T19:03:58.288Z,2046.00
2023-03-06T19:04:58.287Z,2039.00
2023-03-06T19:05:58.327Z,2033.00
2023-03-06T19:06:58.340Z,2038.00
2023-03-06T19:07:58.348Z,2034.00
2023-03-06T19:08:58.365Z,2029.00
2023-03-06T19:09:58.370Z,2031.00
2023-03-06T19:10:58.396Z,2042.00
2023-03-06T19:11:58.420Z,2028.00
2023-03-06T19:12:58.420Z,2033.00
2023-03-06T19:13:58.431Z,2032.00
2023-03-06T19:14:58.431Z,2019.00
2023-03-06T19:15:58.531Z,2027.00
2023-03-06T19:16:58.546Z,2014.00
2023-03-06T19:17:58.567Z,2012.00
2023-03-06T19:18:58.567Z,2005.00
2023-03-06T19:19:58.583Z,2016.00
2023-03-06T19:20:58.599Z,2009.00
2023-03-06T19:21:58.735Z,2008.00
2023-03-06T19:22:58.659Z,2010.00
2023-03-06T19:23:58.672Z,2002.00
2023-03-06T19:24:58.688Z,2001.00
2023-03-06T19:25:59.581Z,1992.00
2023-03-06T19:26:58.764Z,1995.00
2023-03-06T19:27:59.590Z,1999.00
2023-03-06T19:28:58.778Z,1995.00
2023-03-06T19:29:58.800Z,1990.00
2023-03-06T19:30:58.833Z,1990.00
2023-03-06T19:31:58.980Z,1987.00
2023-03-06T19:32:58.863Z,1978.00
2023-03-06T19:33:58.924Z,1974.00
2023-03-06T19:34:58.923Z,1975.00
2023-03-06T19:35:58.979Z,1980.00
2023-03-06T19:36:58.959Z,1979.00
2023-03-06T19:37:58.976Z,1990.00
2023-03-06T19:38:59.046Z,1972.00
2023-03-06T19:39:59.057Z,1963.00
2023-03-06T19:40:59.592Z,1968.00
2023-03-06T19:41:59.053Z,1960.00
2023-03-06T19:42:59.058Z,1968.00
2023-03-06T19:43:59.113Z,1953.00
2023-03-06T19:44:59.158Z,1953.00
2023-03-06T19:45:59.115Z,1951.00
2023-03-06T19:46:59.140Z,1951.00
2023-03-06T19:47:59.149Z,1943.00
2023-03-06T19:48:59.184Z,1951.00
2023-03-06T19:49:59.195Z,1930.00
2023-03-06T19:50:59.215Z,1941.00
2023-03-06T19:51:59.237Z,1942.00
2023-03-06T19:52:59.268Z,1935.00
2023-03-06T19:53:59.278Z,1935.00
2023-03-06T19:54:59.303Z,1934.00
2023-03-06T19:55:59.337Z,1920.00
2023-03-06T19:56:59.357Z,1924.00
2023-03-06T19:57:59.370Z,1918.00
2023-03-06T19:58:59.399Z,1918.00
2023-03-06T19:59:59.418Z,1917.00
2023-03-06T20:00:59.465Z,1915.00
2023-03-06T20:01:59.477Z,1909.00
2023-03-06T20:02:59.508Z,1917.00
2023-03-06T20:03:59.913Z,1915.00
2023-03-06T20:04:59.555Z,1904.00
2023-03-06T20:05:59.569Z,1896.00
2023-03-06T20:06:59.600Z,1904.00
2023-03-06T20:07:59.617Z,1908.00
2023-03-06T20:09:00.131Z,1890.00
2023-03-06T20:09:59.659Z,1905.00
2023-03-06T20:10:59.710Z,1885.00
2023-03-06T20:11:59.692Z,1882.00
2023-03-06T20:12:59.723Z,1879.00
2023-03-06T20:13:59.742Z,1875.00
2023-03-06T20:14:59.775Z,1882.00
2023-03-06T20:15:59.840Z,1876.00
2023-03-06T20:16:59.829Z,1868.00
2023-03-06T20:17:59.844Z,1874.00
2023-03-06T20:18:59.871Z,1866.00
2023-03-06T20:19:59.897Z,1859.00
2023-03-06T20:20:59.912Z,1856.00
2023-03-06T20:22:00.612Z,1853.00
2023-03-06T20:23:00.022Z,1859.00
2023-03-06T20:23:59.989Z,1857.00
2023-03-06T20:25:00.015Z,1862.00
2023-03-06T20:26:00.044Z,1856.00
2023-03-06T20:27:00.063Z,1861.00
2023-03-06T20:28:00.122Z,1854.00
2023-03-06T20:29:00.094Z,1839.00
2023-03-06T20:30:00.139Z,1842.00
2023-03-06T20:31:00.232Z,1840.00
2023-03-06T20:32:00.180Z,1833.00
2023-03-06T20:33:00.215Z,1833.00
2023-03-06T20:34:00.229Z,1835.00
2023-03-06T20:35:01.120Z,1836.00
2023-03-06T20:36:00.372Z,1835.00
2023-03-06T20:37:00.314Z,1835.00
2023-03-06T20:38:01.105Z,1825.00
2023-03-06T20:39:00.370Z,1823.00
2023-03-06T20:40:00.404Z,1830.00
2023-03-06T20:41:00.437Z,1823.00
2023-03-06T20:42:00.435Z,1827.00
2023-03-06T20:43:00.479Z,1819.00
2023-03-06T20:44:00.522Z,1811.00
2023-03-06T20:45:00.528Z,1814.00
2023-03-06T20:46:00.603Z,1827.00
2023-03-06T20:47:00.569Z,1813.00
2023-03-06T20:48:00.603Z,1806.00
2023-03-06T20:49:00.632Z,1804.00
2023-03-06T20:50:01.682Z,1805.00
2023-03-06T20:51:00.697Z,1807.00
2023-03-06T20:52:00.709Z,1800.00
2023-03-06T20:53:00.736Z,1789.00
2023-03-06T20:54:00.759Z,1793.00
2023-03-06T20:55:00.793Z,1791.00
2023-03-06T20:56:01.118Z,1789.00
2023-03-06T20:57:00.838Z,1782.00
2023-03-06T20:58:00.859Z,1784.00
2023-03-06T20:59:00.899Z,1769.00
2023-03-06T21:00:01.139Z,1767.00
2023-03-06T21:01:02.456Z,1785.00
2023-03-06T21:02:01.052Z,1782.00
2023-03-06T22:10:03.677Z,1678.00
2023-03-06T22:11:03.648Z,1679.00
2023-03-06T22:16:03.650Z,1673.00
2023-03-06T22:24:03.651Z,1641.00
2023-03-06T22:27:03.664Z,1656.00
2023-03-06T22:32:03.391Z,1637.00
2023-03-06T22:35:03.323Z,1640.00
2023-03-06T22:36:03.365Z,1625.00
2023-03-06T22:37:03.370Z,1629.00
2023-03-06T22:38:03.393Z,1613.00
2023-03-06T22:39:03.399Z,1611.00
2023-03-06T22:40:03.436Z,1615.00
2023-03-06T22:41:03.474Z,1617.00
2023-03-06T22:42:03.484Z,1620.00
2023-03-06T22:43:03.503Z,1626.00
2023-03-06T22:44:03.527Z,1620.00
2023-03-06T22:45:03.536Z,1611.00
2023-03-06T22:46:03.623Z,1599.00
2023-03-06T22:47:03.593Z,1616.00
2023-03-06T22:48:10.822Z,1603.00
2023-03-06T22:49:04.613Z,1604.00
2023-03-06T22:50:03.596Z,1604.00
2023-03-06T22:51:03.596Z,1605.00
2023-03-06T22:52:03.578Z,1608.00
2023-03-06T22:53:03.574Z,1591.00
2023-03-06T22:54:03.576Z,1601.00
2023-03-06T22:55:03.566Z,1589.00
2023-03-06T22:56:03.557Z,1605.00
2023-03-06T22:57:03.557Z,1590.00
2023-03-06T22:58:03.550Z,1568.00
2023-03-06T22:59:03.531Z,1580.00
2023-03-06T23:00:03.547Z,1587.00
2023-03-06T23:01:03.547Z,1565.00
2023-03-06T23:02:03.519Z,1569.00
2023-03-06T23:03:03.587Z,1566.00
2023-03-06T23:04:03.565Z,1580.00
2023-03-06T23:05:03.504Z,1572.00
2023-03-06T23:06:03.498Z,1596.00
2023-03-06T23:07:03.509Z,1569.00
2023-03-06T23:08:03.536Z,1573.00
2023-03-06T23:09:03.640Z,1573.00
2023-03-06T23:10:03.590Z,1561.00
2023-03-06T23:11:03.616Z,1566.00
2023-03-06T23:12:03.638Z,1547.00
2023-03-06T23:13:03.664Z,1568.00
2023-03-06T23:14:03.685Z,1556.00
2023-03-06T23:15:03.771Z,1580.00
2023-03-06T23:16:03.860Z,1555.00
2023-03-06T23:27:04.030Z,1534.00
2023-03-06T23:28:04.047Z,1530.00
2023-03-06T23:29:04.069Z,1534.00
2023-03-06T23:30:04.074Z,1545.00
2023-03-06T23:31:04.152Z,1536.00
2023-03-06T23:32:04.174Z,1534.00
2023-03-06T23:33:04.146Z,1528.00
2023-03-06T23:34:04.178Z,1527.00
2023-03-06T23:35:04.199Z,1528.00
2023-03-06T23:36:04.209Z,1533.00
2023-03-06T23:37:04.248Z,1515.00
2023-03-06T23:38:04.278Z,1534.00
2023-03-06T23:39:04.291Z,1529.00
2023-03-06T23:40:04.316Z,1532.00
2023-03-06T23:41:04.374Z,1516.00
2023-03-06T23:42:04.364Z,1526.00
2023-03-06T23:43:04.687Z,1522.00
2023-03-06T23:44:04.411Z,1520.00
2023-03-06T23:45:04.444Z,1527.00
2023-03-06T23:46:04.500Z,1506.00
2023-03-06T23:47:04.485Z,1504.00
2023-03-06T23:48:04.516Z,1506.00
2023-03-06T23:49:04.546Z,1504.00
2023-03-06T23:50:04.579Z,1506.00
2023-03-06T23:51:04.599Z,1505.00
2023-03-06T23:52:04.646Z,1500.00
2023-03-06T23:53:04.674Z,1505.00
2023-03-06T23:54:04.719Z,1495.00
2023-03-06T23:55:04.809Z,1499.00
2023-03-06T23:56:04.754Z,1500.00
2023-03-06T23:57:04.805Z,1519.00
2023-03-06T23:58:05.690Z,1497.00
2023-03-06T23:59:04.828Z,1503.00
